createdAt,value
2023-01-11T00:02:12.592Z,9.62
2023-01-11T00:04:38.991Z,9.58
2023-01-11T00:07:05.438Z,9.59
2023-01-11T00:09:32.660Z,9.60
2023-01-11T00:11:59.092Z,9.65
2023-01-11T00:14:25.511Z,9.65
2023-01-11T00:16:51.928Z,9.63
2023-01-11T00:19:18.293Z,9.64
2023-01-11T00:21:44.658Z,9.70
2023-01-11T00:24:11.017Z,9.72
2023-01-11T00:26:37.417Z,9.65
2023-01-11T00:29:03.873Z,9.68
2023-01-11T00:31:30.264Z,9.73
2023-01-11T00:33:57.243Z,9.76
2023-01-11T00:36:23.638Z,9.71
2023-01-11T00:38:54.083Z,9.75
2023-01-11T00:41:40.726Z,9.79
2023-01-11T00:44:28.636Z,9.77
2023-01-11T00:47:13.444Z,9.82
2023-01-11T00:49:39.826Z,9.78
2023-01-11T00:52:08.860Z,9.81
2023-01-11T00:54:36.814Z,9.83
2023-01-11T00:57:03.922Z,9.86
2023-01-11T00:59:30.294Z,9.82
2023-01-11T01:01:56.699Z,9.88
2023-01-11T01:04:23.110Z,9.80
2023-01-11T01:06:49.509Z,9.82
2023-01-11T01:09:15.913Z,9.87
2023-01-11T01:11:42.406Z,9.93
2023-01-11T01:14:28.429Z,9.94
2023-01-11T01:17:00.444Z,9.89
2023-01-11T01:19:30.167Z,9.89
2023-01-11T01:21:58.590Z,9.95
2023-01-11T01:24:28.694Z,10.03
2023-01-11T01:26:56.077Z,9.96
2023-01-11T01:29:22.735Z,9.99
2023-01-11T01:31:49.187Z,10.02
2023-01-11T01:34:15.984Z,10.04
2023-01-11T01:36:42.436Z,10.03
2023-01-11T01:39:11.064Z,10.11
2023-01-11T01:41:37.901Z,10.09
2023-01-11T01:44:42.831Z,10.12
2023-01-11T01:47:09.690Z,10.07
2023-01-11T01:49:36.793Z,10.14
2023-01-11T01:52:03.536Z,10.13
2023-01-11T01:54:36.545Z,10.10
2023-01-11T01:57:09.904Z,10.12
2023-01-11T01:59:36.630Z,10.20
2023-01-11T02:02:03.154Z,10.23
2023-01-11T02:04:42.367Z,10.22
2023-01-11T02:07:16.379Z,10.25
2023-01-11T02:09:56.819Z,10.24
2023-01-11T02:12:30.055Z,10.21
2023-01-11T02:15:00.145Z,10.28
2023-01-11T02:17:26.686Z,10.29
2023-01-11T02:20:11.026Z,10.31
2023-01-11T02:23:07.038Z,10.36
2023-01-11T02:26:10.901Z,10.40
2023-01-11T02:29:18.479Z,10.32
2023-01-11T02:31:47.702Z,10.39
2023-01-11T02:34:37.901Z,10.43
2023-01-11T02:37:41.728Z,10.42
2023-01-11T02:40:21.787Z,10.51
2023-01-11T02:43:15.971Z,10.52
2023-01-11T02:45:51.521Z,10.55
2023-01-11T02:48:25.131Z,10.54
2023-01-11T02:51:26.698Z,10.60
2023-01-11T02:54:01.308Z,10.59
2023-01-11T02:56:32.812Z,10.56
2023-01-11T02:59:00.980Z,10.60
2023-01-11T03:01:27.551Z,10.56
2023-01-11T03:03:54.037Z,10.61
2023-01-11T03:06:26.074Z,10.59
2023-01-11T03:09:40.530Z,10.62
2023-01-11T03:12:54.711Z,10.66
2023-01-11T03:15:30.100Z,10.66
2023-01-11T03:18:17.770Z,10.64
2023-01-11T03:20:51.624Z,10.58
2023-01-11T03:23:27.587Z,10.55
2023-01-11T03:26:29.369Z,10.60
2023-01-11T03:29:19.935Z,10.62
2023-01-11T03:31:52.877Z,10.61
2023-01-11T03:34:32.927Z,10.66
2023-01-11T03:37:12.285Z,10.64
2023-01-11T03:39:49.033Z,10.67
2023-01-11T03:42:19.822Z,10.71
2023-01-11T03:44:52.864Z,10.68
2023-01-11T03:47:23.459Z,10.66
2023-01-11T03:50:01.258Z,10.63
2023-01-11T03:52:33.878Z,10.65
2023-01-11T03:55:03.208Z,10.66
2023-01-11T03:57:33.737Z,10.63
2023-01-11T04:00:00.924Z,10.64
2023-01-11T04:02:34.430Z,10.66
2023-01-11T04:05:01.477Z,10.68
2023-01-11T04:07:28.247Z,10.70
2023-01-11T04:09:54.665Z,10.69
2023-01-11T04:12:21.017Z,10.70
2023-01-11T04:14:47.419Z,10.74
2023-01-11T04:17:13.782Z,10.74
2023-01-11T04:19:40.188Z,10.67
2023-01-11T04:22:06.552Z,10.64
2023-01-11T04:24:32.947Z,10.59
2023-01-11T04:26:59.393Z,10.59
2023-01-11T04:29:25.811Z,10.58
2023-01-11T04:31:52.313Z,10.63
2023-01-11T04:34:18.723Z,10.69
2023-01-11T04:36:45.187Z,10.70
2023-01-11T04:39:11.742Z,10.68
2023-01-11T04:41:57.006Z,10.69
2023-01-11T04:44:23.742Z,10.70
2023-01-11T04:46:51.367Z,10.66
2023-01-11T04:49:17.785Z,10.68
2023-01-11T04:51:44.206Z,10.68
2023-01-11T04:54:11.350Z,10.67
2023-01-11T04:56:37.998Z,10.65
2023-01-11T04:59:04.440Z,10.62
2023-01-11T05:01:31.017Z,10.60
2023-01-11T05:03:57.463Z,10.62
2023-01-11T05:06:24.034Z,10.60
2023-01-11T05:08:50.603Z,10.56
2023-01-11T05:11:17.799Z,10.49
2023-01-11T05:13:44.985Z,10.50
2023-01-11T05:16:17.924Z,10.51
2023-01-11T05:18:53.195Z,10.55
2023-01-11T05:21:23.296Z,10.54
2023-01-11T05:23:50.281Z,10.48
2023-01-11T05:26:25.235Z,10.46
2023-01-11T05:28:52.183Z,10.44
2023-01-11T05:31:19.235Z,10.47
2023-01-11T05:33:45.679Z,10.47
2023-01-11T05:36:15.129Z,10.43
2023-01-11T05:38:41.561Z,10.43
2023-01-11T05:41:10.092Z,10.46
2023-01-11T05:43:55.753Z,10.39
2023-01-11T05:46:22.688Z,10.39
2023-01-11T05:48:49.306Z,10.31
2023-01-11T05:51:16.228Z,10.36
2023-01-11T05:53:42.932Z,10.35
2023-01-11T05:56:09.625Z,10.34
2023-01-11T05:58:36.063Z,10.32
2023-01-11T06:01:02.463Z,10.29
2023-01-11T06:03:28.834Z,10.31
2023-01-11T06:05:55.196Z,10.18
2023-01-11T06:08:21.572Z,10.24
2023-01-11T06:10:52.623Z,10.22
2023-01-11T06:13:28.339Z,10.22
2023-01-11T06:16:00.888Z,10.28
2023-01-11T06:18:28.965Z,10.30
2023-01-11T06:20:56.410Z,10.26
2023-01-11T06:23:24.398Z,10.20
2023-01-11T06:25:51.177Z,10.18
2023-01-11T06:28:17.790Z,10.17
2023-01-11T06:30:44.690Z,10.13
2023-01-11T06:33:11.116Z,10.15
2023-01-11T06:35:39.970Z,10.14
2023-01-11T06:38:08.186Z,10.12
2023-01-11T06:40:35.475Z,10.11
2023-01-11T06:43:02.095Z,10.10
2023-01-11T06:45:28.612Z,10.10
2023-01-11T06:47:55.034Z,10.00
2023-01-11T06:50:21.644Z,10.03
2023-01-11T06:52:55.032Z,9.99
2023-01-11T06:55:22.368Z,9.94
2023-01-11T06:57:48.981Z,9.94
2023-01-11T07:00:16.567Z,9.95
2023-01-11T07:02:43.905Z,9.97
2023-01-11T07:05:10.886Z,9.89
2023-01-11T07:07:38.408Z,9.87
2023-01-11T07:10:10.180Z,9.82
2023-01-11T07:12:36.675Z,9.87
2023-01-11T07:15:05.420Z,9.85
2023-01-11T07:17:31.890Z,9.79
2023-01-11T07:19:58.499Z,9.80
2023-01-11T07:22:25.086Z,9.77
2023-01-11T07:24:51.908Z,9.73
2023-01-11T07:27:20.135Z,9.68
2023-01-11T07:29:47.099Z,9.67
2023-01-11T07:32:13.882Z,9.70
2023-01-11T07:34:40.426Z,9.70
2023-01-11T07:37:09.410Z,9.66
2023-01-11T07:39:55.182Z,9.63
2023-01-11T07:42:40.392Z,9.61
2023-01-11T07:45:07.379Z,9.58
2023-01-11T07:47:33.828Z,9.53
2023-01-11T07:50:00.207Z,9.55
2023-01-11T07:52:26.631Z,9.56
2023-01-11T07:54:53.074Z,9.48
2023-01-11T07:57:19.485Z,9.50
2023-01-11T07:59:45.861Z,9.46
2023-01-11T08:02:12.305Z,9.50
2023-01-11T08:04:38.700Z,9.49
2023-01-11T08:07:05.152Z,9.46
2023-01-11T08:09:31.604Z,9.50
2023-01-11T08:12:16.996Z,9.54
2023-01-11T08:14:43.446Z,9.56
2023-01-11T08:17:13.690Z,9.54
2023-01-11T08:19:40.712Z,9.54
2023-01-11T08:22:07.743Z,9.48
2023-01-11T08:24:37.034Z,9.45
2023-01-11T08:27:04.555Z,9.38
2023-01-11T08:29:34.449Z,9.38
2023-01-11T08:32:00.884Z,9.43
2023-01-11T08:34:29.017Z,9.41
2023-01-11T08:37:01.865Z,9.43
2023-01-11T08:39:31.460Z,9.37
2023-01-11T08:41:58.902Z,9.40
2023-01-11T08:44:33.878Z,9.32
2023-01-11T08:47:01.310Z,9.35
2023-01-11T08:49:27.725Z,9.38
2023-01-11T08:51:54.156Z,9.41
2023-01-11T08:54:20.598Z,9.41
2023-01-11T08:56:46.967Z,9.43
2023-01-11T08:59:13.631Z,9.46
2023-01-11T09:01:40.048Z,9.53
2023-01-11T09:04:15.822Z,9.52
2023-01-11T09:06:50.075Z,9.54
2023-01-11T09:09:16.867Z,9.53
2023-01-11T09:11:56.461Z,9.48
2023-01-11T09:14:25.345Z,9.53
2023-01-11T09:16:52.940Z,9.55
2023-01-11T09:19:19.824Z,9.61
2023-01-11T09:21:46.733Z,9.65
2023-01-11T09:24:13.711Z,9.73
2023-01-11T09:26:42.082Z,9.71
2023-01-11T09:29:08.899Z,9.72
2023-01-11T09:31:35.339Z,9.74
2023-01-11T09:34:01.879Z,9.71
2023-01-11T09:36:28.979Z,9.71
2023-01-11T09:38:57.767Z,9.67
2023-01-11T09:41:37.917Z,9.76
2023-01-11T09:44:16.146Z,9.82
2023-01-11T09:46:49.186Z,9.90
2023-01-11T09:49:25.037Z,9.90
2023-01-11T09:51:52.152Z,9.91
2023-01-11T09:54:25.973Z,9.86
2023-01-11T09:57:38.201Z,9.95
2023-01-11T10:00:20.613Z,9.99
2023-01-11T10:03:03.252Z,10.07
2023-01-11T10:05:46.465Z,9.96
2023-01-11T10:18:31.576Z,10.16
2023-01-11T10:18:32.624Z,10.18
2023-01-11T10:21:05.426Z,10.14
2023-01-11T10:23:42.028Z,10.14
2023-01-11T10:26:25.003Z,10.13
2023-01-11T10:29:27.932Z,10.20
2023-01-11T10:32:02.406Z,10.14
2023-01-11T10:35:00.570Z,10.13
2023-01-11T10:37:49.966Z,10.12
2023-01-11T10:40:37.512Z,10.12
2023-01-11T10:43:14.106Z,10.19
2023-01-11T10:45:53.193Z,10.13
2023-01-11T10:48:39.968Z,10.02
2023-01-11T10:51:12.221Z,10.05
2023-01-11T10:54:02.454Z,10.09
2023-01-11T10:57:03.124Z,10.08
2023-01-11T10:59:53.397Z,10.02
2023-01-11T11:02:51.105Z,9.94
2023-01-11T11:05:42.627Z,9.93
2023-01-11T11:08:34.463Z,9.98
2023-01-11T11:11:07.000Z,10.04
2023-01-11T11:14:10.368Z,10.07
2023-01-11T11:16:55.590Z,10.10
2023-01-11T11:19:28.851Z,9.98
2023-01-11T11:21:55.623Z,9.83
2023-01-11T11:24:32.288Z,9.80
2023-01-11T11:27:22.090Z,9.83
2023-01-11T11:29:54.316Z,9.82
2023-01-11T11:32:36.776Z,9.68
2023-01-11T11:35:04.565Z,9.64
2023-01-11T11:37:36.060Z,9.75
2023-01-11T11:40:03.704Z,9.76
2023-01-11T11:42:30.155Z,9.80
2023-01-11T11:45:08.737Z,9.85
2023-01-11T11:47:36.183Z,9.91
2023-01-11T11:50:45.255Z,9.90
2023-01-11T11:53:24.583Z,9.83
2023-01-11T11:55:52.829Z,9.93
2023-01-11T11:58:23.671Z,9.99
2023-01-11T12:00:52.489Z,9.97
2023-01-11T12:03:33.609Z,9.95
2023-01-11T12:06:03.993Z,9.84
2023-01-11T12:08:33.011Z,9.81
2023-01-11T12:11:03.428Z,9.76
2023-01-11T12:13:36.204Z,9.74
2023-01-11T12:16:07.920Z,9.54
2023-01-11T12:18:37.364Z,9.60
2023-01-11T12:21:25.045Z,9.68
2023-01-11T12:24:19.467Z,9.74
2023-01-11T12:27:10.337Z,9.67
2023-01-11T12:30:08.198Z,9.74
2023-01-11T12:32:50.296Z,9.73
2023-01-11T12:35:31.499Z,9.82
2023-01-11T12:38:24.358Z,9.76
2023-01-11T12:41:09.110Z,9.79
2023-01-11T12:44:02.647Z,9.93
2023-01-11T12:46:50.269Z,9.85
2023-01-11T12:49:31.305Z,9.94
2023-01-11T12:52:22.343Z,9.95
2023-01-11T12:55:23.228Z,9.93
2023-01-11T12:58:00.250Z,9.84
2023-01-11T13:00:50.378Z,9.73
2023-01-11T13:03:29.521Z,9.76
2023-01-11T13:06:07.237Z,9.71
2023-01-11T13:08:43.680Z,9.68
2023-01-11T13:11:51.483Z,9.71
2023-01-11T13:14:48.785Z,9.81
2023-01-11T13:17:25.199Z,9.79
2023-01-11T13:20:19.602Z,9.93
2023-01-11T13:23:02.884Z,9.95
2023-01-11T13:25:35.221Z,9.96
2023-01-11T13:28:11.030Z,10.03
2023-01-11T13:30:43.221Z,10.08
2023-01-11T13:33:19.555Z,10.15
2023-01-11T13:35:52.977Z,10.14
2023-01-11T13:38:41.613Z,9.94
2023-01-11T13:41:19.524Z,9.94
2023-01-11T13:43:56.108Z,9.78
2023-01-11T13:46:53.704Z,9.77
2023-01-11T13:49:38.276Z,9.72
2023-01-11T13:52:12.719Z,9.75
2023-01-11T13:54:48.590Z,9.80
2023-01-11T13:57:43.541Z,9.66
2023-01-11T14:00:22.111Z,9.56
2023-01-11T14:03:04.511Z,9.56
2023-01-11T14:05:40.776Z,9.56
2023-01-11T14:08:29.414Z,9.61
2023-01-11T14:11:10.339Z,9.63
2023-01-11T14:14:16.576Z,9.57
2023-01-11T14:16:57.796Z,9.71
2023-01-11T14:19:39.327Z,9.74
2023-01-11T14:22:18.209Z,9.68
2023-01-11T14:24:58.611Z,9.55
2023-01-11T14:27:53.609Z,9.61
2023-01-11T14:30:50.694Z,9.63
2023-01-11T14:33:35.543Z,9.77
2023-01-11T14:36:37.928Z,9.86
2023-01-11T14:39:34.958Z,9.71
2023-01-11T14:42:32.872Z,9.64
2023-01-11T14:45:24.073Z,9.61
2023-01-11T14:47:56.122Z,9.62
2023-01-11T14:50:47.583Z,9.58
2023-01-11T14:53:19.505Z,9.57
2023-01-11T14:55:46.448Z,9.60
2023-01-11T14:58:26.967Z,9.62
2023-01-11T15:00:56.167Z,9.61
2023-01-11T15:03:22.531Z,9.64
2023-01-11T15:05:54.305Z,9.59
2023-01-11T15:08:26.401Z,9.47
2023-01-11T15:10:57.038Z,9.44
2023-01-11T15:13:30.845Z,9.46
2023-01-11T15:16:29.036Z,9.55
2023-01-11T15:18:56.062Z,9.53
2023-01-11T15:21:26.466Z,9.61
2023-01-11T15:23:57.676Z,9.54
2023-01-11T15:26:26.915Z,9.48
2023-01-11T15:28:59.361Z,9.48
2023-01-11T15:32:03.856Z,9.51
2023-01-11T15:34:42.434Z,9.50
2023-01-11T15:37:37.174Z,9.46
2023-01-11T15:40:13.913Z,9.45
2023-01-11T15:42:58.200Z,9.38
2023-01-11T15:46:03.403Z,9.38
2023-01-11T15:48:40.545Z,9.38
2023-01-11T15:51:39.728Z,9.37
2023-01-11T15:54:43.249Z,9.32
2023-01-11T15:57:18.597Z,9.30
2023-01-11T16:00:21.375Z,9.27
2023-01-11T16:03:09.493Z,9.20
2023-01-11T16:05:51.325Z,9.22
2023-01-11T16:08:49.597Z,9.22
2023-01-11T16:11:27.621Z,9.22
2023-01-11T16:14:13.503Z,9.27
2023-01-11T16:16:42.948Z,9.32
2023-01-11T16:19:18.144Z,9.27
2023-01-11T16:21:49.425Z,9.28
2023-01-11T16:24:19.933Z,9.26
2023-01-11T16:26:58.646Z,9.27
2023-01-11T16:29:28.796Z,9.20
2023-01-11T16:32:04.653Z,9.13
2023-01-11T16:34:40.860Z,9.12
2023-01-11T16:37:51.429Z,9.13
2023-01-11T16:40:27.047Z,9.08
2023-01-11T16:43:06.384Z,9.14
2023-01-11T16:45:39.982Z,9.14
2023-01-11T16:48:19.403Z,9.09
2023-01-11T16:51:08.488Z,9.12
2023-01-11T16:53:38.311Z,9.10
2023-01-11T16:56:09.471Z,9.11
2023-01-11T16:58:38.390Z,9.00
2023-01-11T17:01:07.870Z,9.08
2023-01-11T17:03:43.998Z,9.07
2023-01-11T17:06:13.384Z,9.07
2023-01-11T17:08:52.294Z,9.09
2023-01-11T17:11:31.699Z,9.10
2023-01-11T17:14:23.346Z,9.14
2023-01-11T17:16:54.258Z,9.15
2023-01-11T17:19:24.888Z,9.15
2023-01-11T17:22:19.165Z,9.15
2023-01-11T17:25:08.162Z,9.19
2023-01-11T17:27:40.720Z,9.17
2023-01-11T17:30:28.969Z,9.17
2023-01-11T17:33:01.057Z,9.17
2023-01-11T17:35:31.402Z,9.22
2023-01-11T17:38:02.042Z,9.24
2023-01-11T17:40:31.648Z,9.20
2023-01-11T17:43:39.786Z,9.21
2023-01-11T17:46:07.426Z,9.23
2023-01-11T17:48:34.354Z,9.16
2023-01-11T17:51:03.874Z,9.18
2023-01-11T17:53:35.746Z,9.21
2023-01-11T17:56:07.706Z,9.28
2023-01-11T17:58:38.069Z,9.32
2023-01-11T18:01:04.652Z,9.26
2023-01-11T18:03:54.056Z,9.30
2023-01-11T18:06:39.794Z,9.31
2023-01-11T18:09:20.162Z,9.31
2023-01-11T18:11:47.074Z,9.33
2023-01-11T18:14:30.872Z,9.33
2023-01-11T18:17:32.034Z,9.17
2023-01-11T18:19:59.772Z,9.10
2023-01-11T18:22:32.046Z,9.09
2023-01-11T18:25:00.858Z,9.05
2023-01-11T18:27:31.588Z,9.07
2023-01-11T18:30:02.110Z,8.94
2023-01-11T18:32:40.669Z,8.94
2023-01-11T18:35:16.928Z,8.81
2023-01-11T18:37:44.902Z,8.74
2023-01-11T18:40:13.440Z,8.76
2023-01-11T18:42:40.503Z,8.72
2023-01-11T18:45:09.790Z,8.64
2023-01-11T18:47:36.252Z,8.63
2023-01-11T18:50:03.049Z,8.57
2023-01-11T18:52:29.635Z,8.63
2023-01-11T18:54:57.476Z,8.64
2023-01-11T18:57:24.618Z,8.65
2023-01-11T18:59:55.437Z,8.66
2023-01-11T19:02:24.616Z,8.66
2023-01-11T19:04:51.981Z,8.72
2023-01-11T19:07:18.397Z,8.64
2023-01-11T19:09:47.726Z,8.63
2023-01-11T19:12:14.156Z,8.67
2023-01-11T19:14:40.856Z,8.62
2023-01-11T19:17:08.823Z,8.49
2023-01-11T19:19:35.456Z,8.53
2023-01-11T19:22:02.546Z,8.53
2023-01-11T19:24:28.895Z,8.46
2023-01-11T19:26:55.781Z,8.58
2023-01-11T19:29:24.585Z,8.55
2023-01-11T19:31:52.509Z,8.58
2023-01-11T19:34:19.443Z,8.56
2023-01-11T19:36:46.003Z,8.50
2023-01-11T19:39:12.504Z,8.49
2023-01-11T19:41:54.126Z,8.49
2023-01-11T19:44:26.663Z,8.36
2023-01-11T19:47:09.684Z,8.31
2023-01-11T19:49:37.169Z,8.33
2023-01-11T19:52:03.792Z,8.35
2023-01-11T19:54:30.212Z,8.31
2023-01-11T19:56:56.582Z,8.35
2023-01-11T19:59:22.963Z,8.40
2023-01-11T20:01:49.402Z,8.41
2023-01-11T20:04:16.357Z,8.44
2023-01-11T20:06:50.539Z,8.46
2023-01-11T20:09:21.590Z,8.43
2023-01-11T20:11:53.104Z,8.42
2023-01-11T20:14:19.936Z,8.46
2023-01-11T20:16:46.647Z,8.52
2023-01-11T20:19:13.270Z,8.44
2023-01-11T20:21:39.686Z,8.46
2023-01-11T20:24:06.553Z,8.44
2023-01-11T20:26:34.055Z,8.45
2023-01-11T20:29:01.561Z,8.51
2023-01-11T20:31:31.579Z,8.53
2023-01-11T20:34:00.557Z,8.55
2023-01-11T20:36:27.656Z,8.64
2023-01-11T20:38:55.337Z,8.67
2023-01-11T20:41:50.545Z,8.62
2023-01-11T20:44:29.481Z,8.61
2023-01-11T20:46:56.566Z,8.71
2023-01-11T20:49:25.581Z,8.61
2023-01-11T20:51:51.943Z,8.59
2023-01-11T20:54:18.438Z,8.69
2023-01-11T20:56:47.748Z,8.62
2023-01-11T20:59:17.284Z,8.68
2023-01-11T21:01:44.027Z,8.66
2023-01-11T21:04:12.569Z,8.63
2023-01-11T21:06:45.127Z,8.64
2023-01-11T21:09:14.385Z,8.75
2023-01-11T21:11:41.051Z,8.77
2023-01-11T21:14:11.832Z,8.75
2023-01-11T21:16:42.757Z,8.78
2023-01-11T21:19:11.675Z,8.85
2023-01-11T21:21:38.268Z,8.82
2023-01-11T21:24:05.849Z,8.82
2023-01-11T21:26:34.272Z,8.79
2023-01-11T21:29:02.947Z,8.83
2023-01-11T21:31:31.995Z,8.84
2023-01-11T21:33:59.594Z,8.92
2023-01-11T21:36:27.590Z,8.91
2023-01-11T21:38:56.628Z,8.91
2023-01-11T21:41:44.632Z,8.92
2023-01-11T21:44:15.140Z,8.93
2023-01-11T21:46:42.236Z,8.95
2023-01-11T21:49:09.306Z,9.00
2023-01-11T21:51:36.060Z,8.87
2023-01-11T21:54:08.582Z,8.88
2023-01-11T21:56:35.149Z,8.84
2023-01-11T21:59:01.799Z,8.82
2023-01-11T22:01:28.761Z,8.86
2023-01-11T22:03:55.438Z,8.89
2023-01-11T22:06:22.037Z,8.94
2023-01-11T22:08:48.605Z,8.94
2023-01-11T22:11:16.733Z,8.94
2023-01-11T22:13:43.552Z,8.97
2023-01-11T22:16:16.041Z,8.92
2023-01-11T22:18:43.893Z,8.89
2023-01-11T22:21:12.974Z,8.93
2023-01-11T22:23:40.160Z,8.96
2023-01-11T22:26:11.985Z,8.95
2023-01-11T22:28:57.488Z,8.94
2023-01-11T22:31:25.014Z,8.94
2023-01-11T22:33:52.012Z,8.77
2023-01-11T22:36:19.484Z,8.69
2023-01-11T22:38:46.717Z,8.76
2023-01-11T22:41:14.820Z,8.74
2023-01-11T22:43:45.155Z,8.81
2023-01-11T22:46:17.545Z,8.87
2023-01-11T22:48:44.551Z,8.83
2023-01-11T22:51:11.775Z,8.79
2023-01-11T22:53:39.177Z,8.80
2023-01-11T22:56:06.594Z,8.84
2023-01-11T22:58:33.235Z,8.91
2023-01-11T23:01:09.837Z,8.96
2023-01-11T23:03:36.274Z,8.97
2023-01-11T23:06:02.691Z,8.97
2023-01-11T23:08:29.387Z,9.01
2023-01-11T23:11:00.276Z,8.97
2023-01-11T23:13:45.305Z,8.98
2023-01-11T23:16:13.701Z,8.99
2023-01-11T23:18:41.235Z,8.90
2023-01-11T23:21:08.226Z,8.87
2023-01-11T23:23:34.650Z,8.84
2023-01-11T23:26:01.005Z,8.80
2023-01-11T23:28:29.801Z,8.82
2023-01-11T23:30:56.205Z,8.85
2023-01-11T23:33:22.642Z,8.91
2023-01-11T23:35:59.278Z,8.94
2023-01-11T23:38:25.886Z,8.89
2023-01-11T23:41:10.959Z,8.78
2023-01-11T23:43:38.764Z,8.81
2023-01-11T23:46:24.052Z,8.80
2023-01-11T23:48:50.999Z,8.85
2023-01-11T23:51:17.389Z,8.83
2023-01-11T23:53:43.808Z,8.89
2023-01-11T23:56:10.217Z,8.99
2023-01-11T23:58:36.615Z,8.94
